Time;durP1;ratioP1;P1;durP2;ratioP2;P2;SDS_P1;SDS_P2;PMS_P1;PMS_P2;Temp;Humidity;BMP_temperature;BMP_pressure;BME280_temperature;BME280_humidity;BME280_pressure;Samples;Min_cycle;Max_cycle;Signal;HPM_P1;HPM_P2
2023/06/16 00:01:35;;;;;;;4.82;3.15;;;;;;;18.56;49.48;99462.34;7791715;32;37908;-79
2023/06/16 00:05:52;;;;;;;5.72;3.37;;;;;;;18.49;49.72;99461.22;7791359;32;37363;-78
2023/06/16 00:10:08;;;;;;;6.03;3.30;;;;;;;18.39;50.26;99456.91;7791733;32;39271;-78
2023/06/16 00:14:25;;;;;;;5.65;3.25;;;;;;;18.35;50.43;99467.81;7777830;32;39055;-77
2023/06/16 00:18:43;;;;;;;6.37;3.92;;;;;;;18.26;50.77;99463.44;7791566;32;38479;-78
2023/06/16 00:23:00;;;;;;;6.55;3.70;;;;;;;18.33;50.79;99456.28;7778090;32;37088;-77
2023/06/16 00:27:17;;;;;;;6.25;3.42;;;;;;;18.28;50.96;99462.00;7790924;32;40161;-75
2023/06/16 00:31:34;;;;;;;5.07;3.37;;;;;;;18.16;51.27;99459.94;7791211;32;39728;-79
2023/06/16 00:35:50;;;;;;;7.68;3.35;;;;;;;18.22;51.46;99454.22;7791166;32;37876;-78
2023/06/16 00:40:08;;;;;;;6.97;3.53;;;;;;;18.18;50.94;99448.56;7791167;32;37882;-78
2023/06/16 00:44:24;;;;;;;7.57;3.70;;;;;;;18.42;49.83;99449.91;7790447;32;39353;-78
2023/06/16 00:48:40;;;;;;;6.57;3.78;;;;;;;18.15;50.57;99449.22;7799549;32;40041;-78
2023/06/16 00:52:57;;;;;;;6.35;3.50;;;;;;;18.31;50.31;99453.03;7799787;32;38598;-79
2023/06/16 00:57:13;;;;;;;6.25;3.67;;;;;;;18.12;51.54;99447.91;7799784;32;36827;-79
2023/06/16 01:01:30;;;;;;;6.53;4.20;;;;;;;18.20;52.02;99449.84;7799736;32;39394;-79
2023/06/16 01:05:47;;;;;;;10.77;3.60;;;;;;;18.08;52.78;99437.91;7799339;32;40760;-78
2023/06/16 01:10:08;;;;;;;6.72;3.85;;;;;;;18.14;52.47;99439.31;7799303;32;37580;-79
2023/06/16 01:14:39;;;;;;;5.05;3.10;;;;;;;18.26;51.72;99431.16;7799182;32;36487;-78
2023/06/16 01:18:56;;;;;;;8.45;3.58;;;;;;;18.28;51.39;99428.87;7786632;32;39490;-79
2023/06/16 01:23:37;;;;;;;6.03;3.33;;;;;;;18.26;51.64;99436.66;7785249;32;40796;-78
2023/06/16 01:27:54;;;;;;;5.95;3.45;;;;;;;18.00;52.56;99428.50;7798769;32;37984;-78
2023/06/16 01:32:11;;;;;;;6.65;3.22;;;;;;;18.07;52.05;99433.50;7798865;32;38184;-78
2023/06/16 01:36:31;;;;;;;6.57;3.40;;;;;;;17.91;52.52;99436.81;7798616;32;39381;-78
2023/06/16 01:40:50;;;;;;;8.73;3.97;;;;;;;17.96;52.65;99422.03;7784799;32;40865;-79
2023/06/16 01:45:07;;;;;;;6.50;3.58;;;;;;;18.10;52.26;99425.38;7784774;32;38582;-79
2023/06/16 01:49:23;;;;;;;8.25;4.05;;;;;;;17.80;54.23;99428.06;7798444;32;36889;-78
2023/06/16 01:53:40;;;;;;;6.05;3.42;;;;;;;17.97;53.55;99427.22;7798160;32;40108;-77
2023/06/16 01:57:57;;;;;;;6.87;4.10;;;;;;;17.63;54.77;99426.16;7794368;32;39970;-78
2023/06/16 02:02:19;;;;;;;9.52;4.00;;;;;;;17.74;54.67;99429.37;7793331;32;37621;-79
2023/06/16 02:06:43;;;;;;;6.80;3.95;;;;;;;17.84;54.46;99430.97;7779491;32;37888;-79
2023/06/16 02:10:59;;;;;;;6.93;4.30;;;;;;;17.73;54.94;99436.03;7779927;32;40011;-78
2023/06/16 02:15:20;;;;;;;8.75;4.20;;;;;;;17.60;55.37;99432.31;7779174;32;40751;-78
2023/06/16 02:19:38;;;;;;;6.60;3.92;;;;;;;17.71;55.21;99431.97;7779380;32;37846;-78
2023/06/16 02:23:55;;;;;;;7.62;4.10;;;;;;;17.76;54.83;99429.84;7793114;32;36360;-78
2023/06/16 02:28:11;;;;;;;7.05;3.87;;;;;;;17.52;56.11;99429.56;7792901;32;39531;-79
2023/06/16 02:32:29;;;;;;;7.50;3.87;;;;;;;17.60;55.69;99426.81;7792718;32;39653;-78
2023/06/16 02:36:46;;;;;;;10.07;3.87;;;;;;;17.55;55.77;99421.47;7792938;32;38173;-78
2023/06/16 02:41:02;;;;;;;7.53;4.00;;;;;;;17.72;55.14;99420.63;7792497;32;37919;-78
2023/06/16 02:45:19;;;;;;;6.78;3.90;;;;;;;17.72;54.59;99423.38;7792791;32;40129;-78
2023/06/16 02:49:35;;;;;;;7.90;3.95;;;;;;;17.47;55.59;99427.78;7792697;32;39663;-78
2023/06/16 02:53:51;;;;;;;9.13;4.00;;;;;;;17.48;55.67;99428.63;7792330;32;38556;-78
2023/06/16 02:58:08;;;;;;;7.72;4.03;;;;;;;17.56;55.35;99420.34;7792741;32;37244;-79
2023/06/16 03:02:24;;;;;;;6.32;3.75;;;;;;;17.45;55.65;99413.53;7792395;32;40092;-77
2023/06/16 03:06:44;;;;;;;10.50;4.03;;;;;;;17.58;55.38;99423.56;7792495;32;40869;-79
2023/06/16 03:11:01;;;;;;;7.22;3.70;;;;;;;17.58;55.62;99420.81;7792285;32;39105;-78
2023/06/16 03:15:18;;;;;;;7.80;4.37;;;;;;;17.86;54.55;99423.19;7792569;32;37676;-79
2023/06/16 03:19:35;;;;;;;8.30;4.10;;;;;;;17.73;54.88;99421.41;7792371;32;40095;-78
2023/06/16 03:23:51;;;;;;;7.37;4.32;;;;;;;17.73;54.82;99424.19;7792425;32;40778;-78
2023/06/16 03:28:08;;;;;;;7.10;4.15;;;;;;;17.71;55.09;99430.00;7792228;32;37856;-79
2023/06/16 03:32:27;;;;;;;8.32;4.00;;;;;;;17.82;54.83;99427.72;7792060;32;37154;-78
2023/06/16 03:36:43;;;;;;;6.70;4.30;;;;;;;17.78;55.25;99430.34;7778497;32;39134;-78
2023/06/16 03:41:00;;;;;;;7.57;4.15;;;;;;;17.75;55.84;99428.25;7792316;32;40977;-78
2023/06/16 03:45:16;;;;;;;7.10;4.12;;;;;;;17.75;56.32;99428.25;7778263;32;38681;-78
2023/06/16 03:49:34;;;;;;;6.75;4.25;;;;;;;17.75;55.88;99428.25;7792024;32;37058;-78
2023/06/16 03:53:51;;;;;;;6.32;4.15;;;;;;;17.80;55.47;99430.81;7791744;32;39323;-78
2023/06/16 03:58:07;;;;;;;6.90;4.22;;;;;;;17.80;55.74;99425.31;7792045;32;39916;-78
2023/06/16 04:02:24;;;;;;;7.32;3.70;;;;;;;17.71;57.31;99423.69;7791889;32;37942;-78
2023/06/16 04:06:40;;;;;;;7.65;4.20;;;;;;;17.75;57.64;99428.25;7791799;32;37027;-78
2023/06/16 04:10:58;;;;;;;7.50;3.97;;;;;;;17.85;57.43;99421.56;7791847;32;39457;-78
2023/06/16 04:15:15;;;;;;;8.48;4.75;;;;;;;17.87;57.76;99416.56;7791616;32;40067;-79
2023/06/16 04:19:31;;;;;;;9.20;4.35;;;;;;;17.82;58.42;99420.25;7791027;32;37836;-78
2023/06/16 04:23:47;;;;;;;7.45;4.28;;;;;;;17.85;58.83;99418.81;7791367;32;37026;-78
2023/06/16 04:28:06;;;;;;;6.85;4.07;;;;;;;18.07;58.26;99415.00;7791289;32;39512;-78
2023/06/16 04:32:22;;;;;;;7.85;4.07;;;;;;;17.99;58.78;99419.44;7791158;32;39909;-79
2023/06/16 04:36:44;;;;;;;6.95;4.10;;;;;;;18.20;57.40;99410.41;7791219;32;37984;-79
2023/06/16 04:41:00;;;;;;;6.00;3.92;;;;;;;18.32;56.01;99407.75;7791230;32;37134;-78
2023/06/16 04:45:17;;;;;;;7.15;4.00;;;;;;;18.48;56.46;99405.22;7790828;32;39281;-78
2023/06/16 04:49:34;;;;;;;7.53;4.00;;;;;;;18.53;56.91;99402.28;7790832;32;40875;-79
2023/06/16 04:53:50;;;;;;;8.23;4.32;;;;;;;18.44;57.73;99397.94;7790695;32;38657;-79
2023/06/16 04:58:06;;;;;;;7.43;4.28;;;;;;;18.48;58.17;99393.38;7790695;32;37850;-79
2023/06/16 05:02:23;;;;;;;7.85;3.80;;;;;;;18.84;56.45;99389.28;7790520;32;39478;-78
2023/06/16 05:06:39;;;;;;;11.00;4.15;;;;;;;18.86;54.82;99403.53;7790479;32;40734;-78
2023/06/16 05:10:56;;;;;;;10.00;4.40;;;;;;;18.44;54.72;99414.50;7790208;32;38133;-79
2023/06/16 05:15:12;;;;;;;7.50;3.87;;;;;;;18.58;54.87;99406.78;7790267;32;37861;-79
2023/06/16 05:19:31;;;;;;;9.32;4.78;;;;;;;18.77;54.46;99418.19;7790154;32;40044;-78
2023/06/16 05:23:48;;;;;;;13.45;5.03;;;;;;;18.83;55.00;99418.81;7790124;32;40760;-77
2023/06/16 05:28:06;;;;;;;7.75;4.15;;;;;;;18.83;55.59;99420.78;7789382;32;36984;-72
2023/06/16 05:32:22;;;;;;;8.30;4.30;;;;;;;18.53;56.93;99427.09;7790350;32;37133;-72
2023/06/16 05:36:39;;;;;;;8.38;4.43;;;;;;;18.99;55.26;99424.56;7793850;32;40076;-71
2023/06/16 05:40:55;;;;;;;5.80;3.97;;;;;;;19.25;54.63;99424.34;7793025;32;39665;-70
2023/06/16 05:45:11;;;;;;;8.75;4.50;;;;;;;19.24;55.04;99428.25;7793509;32;38558;-72
2023/06/16 05:49:28;;;;;;;7.50;4.60;;;;;;;19.12;55.42;99436.47;7775317;32;38032;-81
2023/06/16 05:53:44;;;;;;;6.87;3.95;;;;;;;19.14;56.03;99437.78;7765126;32;39378;-79
2023/06/16 05:58:01;;;;;;;9.35;4.55;;;;;;;19.18;56.25;99442.59;7766361;32;40016;-79
2023/06/16 06:02:19;;;;;;;9.98;4.90;;;;;;;19.23;55.84;99448.75;7766293;32;37725;-73
2023/06/16 06:06:35;;;;;;;20.27;5.37;;;;;;;19.46;54.82;99443.66;7776426;32;36801;-81
2023/06/16 06:10:52;;;;;;;12.93;5.57;;;;;;;19.55;55.87;99446.31;7788120;32;39460;-80
2023/06/16 06:15:10;;;;;;;15.20;5.62;;;;;;;19.63;54.57;99450.97;7782298;32;40041;-81
2023/06/16 06:19:26;;;;;;;12.52;5.28;;;;;;;19.57;54.98;99443.22;7787878;32;37968;-79
2023/06/16 06:23:42;;;;;;;9.40;5.03;;;;;;;19.68;55.61;99442.47;7785448;32;37911;-82
2023/06/16 06:27:59;;;;;;;10.27;5.50;;;;;;;20.03;53.50;99439.34;7765913;32;40825;-80
2023/06/16 06:32:15;;;;;;;10.23;5.40;;;;;;;20.06;54.15;99448.91;7773806;32;275225;-83
2023/06/16 06:36:33;;;;;;;10.30;5.35;;;;;;;20.50;53.08;99446.38;7788869;32;38548;-83
2023/06/16 06:40:49;;;;;;;12.13;5.32;;;;;;;20.46;52.74;99437.16;7788823;32;36947;-80
2023/06/16 06:45:08;;;;;;;10.15;5.75;;;;;;;20.58;52.69;99448.22;7788028;32;39426;-80
2023/06/16 06:49:24;;;;;;;10.75;6.18;;;;;;;20.63;52.51;99445.25;7766103;32;39356;-79
2023/06/16 06:53:41;;;;;;;11.15;5.82;;;;;;;20.71;52.19;99453.78;7791093;32;38005;-79
2023/06/16 06:57:57;;;;;;;12.90;5.18;;;;;;;20.10;53.05;99460.91;7791245;32;36873;-80
2023/06/16 07:02:14;;;;;;;11.55;5.53;;;;;;;;;;7792655;32;39424;-81
2023/06/16 07:06:32;;;;;;;8.80;4.95;;;;;;;20.31;53.66;99460.00;7792985;32;40196;-79
2023/06/16 07:10:49;;;;;;;10.43;5.53;;;;;;;20.49;52.38;99450.31;7792435;32;37216;-79
2023/06/16 07:15:06;;;;;;;9.48;5.22;;;;;;;20.72;51.49;99450.66;7792556;32;37957;-80
2023/06/16 07:19:24;;;;;;;9.10;4.93;;;;;;;20.94;51.97;99449.38;7791936;32;40063;-77
2023/06/16 07:23:41;;;;;;;9.82;5.03;;;;;;;20.77;51.12;99449.63;7791911;32;40751;-77
2023/06/16 07:27:57;;;;;;;13.15;5.20;;;;;;;20.68;51.44;99457.25;7790506;32;37515;-77
2023/06/16 07:32:14;;;;;;;12.43;5.15;;;;;;;20.77;50.87;99458.75;7791740;32;37188;-77
2023/06/16 07:36:31;;;;;;;9.85;5.00;;;;;;;20.93;52.47;99452.47;7786271;32;40074;-79
2023/06/16 07:40:47;;;;;;;11.27;5.18;;;;;;;21.12;50.68;99460.16;7792355;32;39880;-78
2023/06/16 07:45:04;;;;;;;9.85;5.15;;;;;;;20.92;50.87;99456.41;7786388;32;37674;-77
2023/06/16 07:49:20;;;;;;;9.10;5.25;;;;;;;21.45;50.11;99451.63;7791927;32;37796;-76
2023/06/16 07:53:39;;;;;;;8.65;5.10;;;;;;;21.68;49.86;99449.12;7792090;32;39354;-77
2023/06/16 07:57:56;;;;;;;9.85;5.22;;;;;;;21.94;49.32;99456.16;7789893;32;39988;-77
2023/06/16 08:02:12;;;;;;;10.65;5.25;;;;;;;21.50;49.22;99445.84;7791927;32;38723;-76
2023/06/16 08:06:29;;;;;;;15.45;5.57;;;;;;;21.29;50.31;99453.53;7791974;32;37927;-77
2023/06/16 08:10:45;;;;;;;11.25;5.10;;;;;;;22.06;49.17;99452.47;7790897;32;39292;-78
2023/06/16 08:15:03;;;;;;;8.73;4.82;;;;;;;22.22;49.23;99449.72;7791744;32;39810;-77
2023/06/16 08:19:20;;;;;;;8.88;4.82;;;;;;;22.71;48.27;99446.53;7791775;32;38183;-78
2023/06/16 08:23:36;;;;;;;19.37;5.20;;;;;;;22.70;48.11;99444.94;7791683;32;37015;-78
2023/06/16 08:27:52;;;;;;;8.98;4.57;;;;;;;23.19;48.71;99444.44;7788935;32;39442;-77
2023/06/16 08:32:09;;;;;;;11.77;4.45;;;;;;;23.25;46.21;99443.00;7789419;32;40823;-78
2023/06/16 08:36:25;;;;;;;11.65;5.00;;;;;;;23.54;46.35;99429.66;7791230;32;38652;-77
2023/06/16 08:40:43;;;;;;;10.13;4.65;;;;;;;23.47;45.23;99437.84;7790372;32;37529;-80
2023/06/16 08:45:00;;;;;;;11.15;5.62;;;;;;;23.29;46.71;99439.47;7787602;32;39737;-80
2023/06/16 08:49:18;;;;;;;15.80;5.28;;;;;;;23.39;47.80;99434.12;7771355;32;40775;-80
2023/06/16 08:53:36;;;;;;;8.10;4.95;;;;;;;23.50;47.41;99428.75;7773482;32;37761;-79
2023/06/16 08:57:53;;;;;;;9.73;4.87;;;;;;;23.23;45.80;99425.03;7773494;32;37361;-79
2023/06/16 09:02:09;;;;;;;10.40;4.55;;;;;;;23.76;44.47;99421.69;7787257;32;39389;-77
2023/06/16 09:06:26;;;;;;;9.07;4.70;;;;;;;24.09;43.41;99411.94;7788401;32;40837;-77
2023/06/16 09:10:42;;;;;;;8.13;4.20;;;;;;;23.71;43.67;99422.00;7792630;32;38865;-77
2023/06/16 09:15:01;;;;;;;7.05;4.07;;;;;;;24.11;42.36;99415.16;7778126;32;37900;-80
2023/06/16 09:19:17;;;;;;;9.38;4.60;;;;;;;24.53;41.36;99409.47;7792445;32;39311;-78
2023/06/16 09:23:35;;;;;;;5.75;3.83;;;;;;;24.05;41.02;99408.31;7793750;32;40701;-78
2023/06/16 09:27:53;;;;;;;7.00;4.20;;;;;;;24.57;41.03;99417.91;7793679;32;37673;-81
2023/06/16 09:32:10;;;;;;;10.10;4.50;;;;;;;24.59;43.18;99414.75;7793793;32;37042;-80
2023/06/16 09:36:27;;;;;;;6.97;3.95;;;;;;;24.08;41.30;99405.59;7793935;32;40090;-78
2023/06/16 09:40:43;;;;;;;6.90;4.15;;;;;;;24.27;41.13;99412.25;7793852;32;40747;-81
2023/06/16 09:44:59;;;;;;;9.10;4.62;;;;;;;24.00;41.56;99415.78;7793798;32;37610;-81
2023/06/16 09:49:27;;;;;;;8.05;4.10;;;;;;;24.23;40.09;99412.19;7793674;32;37865;-78
2023/06/16 09:53:46;;;;;;;9.57;4.25;;;;;;;24.63;40.38;99399.69;7793788;32;39180;-80
2023/06/16 09:58:02;;;;;;;7.12;4.10;;;;;;;23.95;40.12;99410.53;7793709;32;39953;-80
2023/06/16 10:02:19;;;;;;;7.53;4.35;;;;;;;23.97;41.37;99410.97;7793362;32;38764;-80
2023/06/16 10:06:47;;;;;;;8.27;4.47;;;;;;;23.68;42.46;99406.84;7779705;32;37244;-81
2023/06/16 10:11:04;;;;;;;11.95;4.45;;;;;;;24.48;43.08;99404.22;7793464;32;39154;-81
2023/06/16 10:15:25;;;;;;;9.23;4.53;;;;;;;24.33;40.83;99397.63;7793386;32;39889;-78
2023/06/16 10:19:46;;;;;;;6.85;4.40;;;;;;;24.80;42.00;99389.16;7792645;32;38085;-78
2023/06/16 10:24:03;;;;;;;9.35;4.62;;;;;;;25.12;42.32;99392.38;7778834;32;37197;-80
2023/06/16 10:28:21;;;;;;;12.25;5.50;;;;;;;24.72;40.34;99386.28;7793114;32;39892;-79
2023/06/16 10:32:38;;;;;;;12.48;4.85;;;;;;;24.19;41.79;99387.06;7792874;32;40729;-81
2023/06/16 10:36:54;;;;;;;7.65;4.20;;;;;;;24.51;42.93;99380.41;7778993;32;38042;-81
2023/06/16 10:41:12;;;;;;;6.90;4.00;;;;;;;24.83;42.71;99385.63;7779125;32;37976;-81
2023/06/16 10:45:31;;;;;;;9.70;4.57;;;;;;;23.97;39.53;99379.53;7792857;32;40271;-80
2023/06/16 10:49:59;;;;;;;10.02;4.82;;;;;;;24.63;42.18;99382.97;7792832;32;39918;-78
2023/06/16 10:54:44;;;;;;;14.10;4.87;;;;;;;25.20;40.78;99382.09;7765708;32;38619;-81
2023/06/16 10:59:00;;;;;;;10.70;4.57;;;;;;;25.11;42.38;99372.06;7758840;32;37078;-79
2023/06/16 11:03:20;;;;;;;13.48;4.50;;;;;;;25.20;39.81;99368.13;7765617;32;39697;-80
2023/06/16 11:08:02;;;;;;;8.48;4.70;;;;;;;25.89;38.24;99361.28;7775299;32;40012;-72
2023/06/16 11:12:19;;;;;;;7.97;4.37;;;;;;;25.95;38.05;99354.19;7792669;32;37959;-72
2023/06/16 11:16:35;;;;;;;9.05;4.28;;;;;;;26.54;37.14;99349.41;7778666;32;37689;-72
2023/06/16 11:20:59;;;;;;;5.65;3.95;;;;;;;26.66;36.53;99345.50;7791276;32;39495;-81
2023/06/16 11:25:15;;;;;;;7.05;4.30;;;;;;;26.93;34.89;99339.63;7774709;32;39592;-83
2023/06/16 11:29:32;;;;;;;7.20;4.25;;;;;;;26.90;35.79;99324.44;7792069;32;38182;-83
2023/06/16 11:33:53;;;;;;;7.50;3.92;;;;;;;26.70;34.32;99331.53;7778670;32;37292;-78
2023/06/16 11:38:10;;;;;;;6.55;3.50;;;;;;;26.95;30.66;99326.06;7779142;32;39446;-80
2023/06/16 11:42:26;;;;;;;7.15;3.62;;;;;;;27.17;31.96;99321.34;7792282;32;40163;-80
2023/06/16 11:46:43;;;;;;;5.57;3.62;;;;;;;27.42;32.01;99315.81;7792237;32;38082;-79
2023/06/16 11:50:59;;;;;;;11.93;4.15;;;;;;;27.68;30.79;99311.84;7790654;32;37796;-81
2023/06/16 11:55:16;;;;;;;6.70;4.25;;;;;;;27.79;33.70;99308.25;7792205;32;39410;-82
2023/06/16 11:59:32;;;;;;;8.90;4.35;;;;;;;28.15;33.37;99294.22;7792141;32;40770;-79
2023/06/16 12:03:49;;;;;;;5.60;3.62;;;;;;;28.52;32.73;99298.53;7791877;32;37960;-79
2023/06/16 12:08:08;;;;;;;6.80;3.95;;;;;;;29.00;33.91;99293.13;7778459;32;37416;-79
2023/06/16 12:12:25;;;;;;;6.50;3.87;;;;;;;29.55;31.02;99285.19;7791524;32;40025;-82
2023/06/16 12:16:41;;;;;;;9.25;4.20;;;;;;;29.23;31.08;99279.81;7791929;32;40583;-81
2023/06/16 12:21:11;;;;;;;11.38;5.00;;;;;;;29.38;31.85;99278.50;7777839;32;37756;-79
2023/06/16 12:25:27;;;;;;;9.57;5.12;;;;;;;29.76;32.86;99282.22;7790978;32;36945;-74
2023/06/16 12:29:44;;;;;;;9.05;5.05;;;;;;;28.83;31.59;99271.59;7782268;32;39495;-79
2023/06/16 12:34:01;;;;;;;9.02;5.03;;;;;;;28.48;33.25;99265.69;7764280;32;41039;-78
2023/06/16 12:38:40;;;;;;;9.38;4.53;;;;;;;29.13;32.33;99262.59;7780975;32;38060;-80
2023/06/16 12:43:16;;;;;;;7.25;4.57;;;;;;;28.54;31.70;99262.47;7772416;32;37916;-78
2023/06/16 12:47:35;;;;;;;9.98;4.95;;;;;;;28.51;33.66;99255.69;7781910;32;39409;-80
2023/06/16 12:51:51;;;;;;;6.68;4.40;;;;;;;28.97;34.57;99262.28;7786990;32;39889;-79
2023/06/16 12:56:09;;;;;;;11.10;5.12;;;;;;;28.80;32.44;99256.38;7790570;32;38764;-79
2023/06/16 13:00:28;;;;;;;12.05;5.07;;;;;;;29.18;32.16;99252.97;7789123;32;38098;-82
2023/06/16 13:04:45;;;;;;;8.48;4.45;;;;;;;28.73;33.00;99238.78;7787527;32;40221;-81
2023/06/16 13:09:02;;;;;;;8.75;4.68;;;;;;;28.24;31.65;99241.38;7787471;32;40158;-79
2023/06/16 13:13:18;;;;;;;8.80;4.95;;;;;;;29.21;30.70;99235.31;7787292;32;37953;-79
2023/06/16 13:17:35;;;;;;;12.32;4.87;;;;;;;28.74;32.46;99241.19;7786986;32;37327;-79
2023/06/16 13:21:51;;;;;;;8.50;4.75;;;;;;;28.70;31.47;99234.00;7788417;32;40091;-79
2023/06/16 13:26:08;;;;;;;8.00;4.62;;;;;;;29.49;28.99;99234.28;7789030;32;39908;-79
2023/06/16 13:30:24;;;;;;;9.57;4.43;;;;;;;29.72;28.33;99235.72;7789195;32;38083;-80
2023/06/16 13:34:40;;;;;;;9.73;4.12;;;;;;;30.28;27.77;99227.91;7789985;32;37161;-81
2023/06/16 13:38:57;;;;;;;6.70;3.78;;;;;;;30.26;27.20;99240.78;7789747;32;40099;-79
2023/06/16 13:43:13;;;;;;;7.87;4.20;;;;;;;30.87;28.18;99229.59;7789855;32;39883;-78
2023/06/16 13:47:30;;;;;;;6.53;3.80;;;;;;;31.56;30.06;99217.31;7789622;32;37696;-79
2023/06/16 13:51:46;;;;;;;7.28;3.80;;;;;;;31.36;25.47;99223.66;7789003;32;37894;-85
2023/06/16 13:56:03;;;;;;;8.07;4.05;;;;;;;31.45;25.56;99217.47;7792254;32;40213;-80
2023/06/16 14:00:20;;;;;;;6.60;4.22;;;;;;;31.94;25.13;99219.84;7779652;32;39721;-83
2023/06/16 14:04:36;;;;;;;7.10;4.47;;;;;;;30.89;25.17;99217.88;7793484;32;38241;-79
2023/06/16 14:08:55;;;;;;;8.93;4.18;;;;;;;30.99;26.12;99213.38;7793501;32;37732;-81
2023/06/16 14:13:12;;;;;;;8.68;3.87;;;;;;;30.78;24.40;99208.81;7793444;32;40067;-79
2023/06/16 14:17:29;;;;;;;6.25;3.85;;;;;;;31.03;25.02;99185.97;7793289;32;40211;-81
2023/06/16 14:21:45;;;;;;;6.37;3.67;;;;;;;30.81;26.06;99191.09;7793201;32;38047;-81
2023/06/16 14:26:02;;;;;;;6.45;3.53;;;;;;;30.64;24.33;99188.09;7793208;32;37326;-79
2023/06/16 14:30:18;;;;;;;4.55;2.92;;;;;;;30.75;26.55;99192.78;7792820;32;39388;-79
2023/06/16 14:34:35;;;;;;;4.68;2.85;;;;;;;31.21;26.10;99189.28;7793095;32;39986;-79
2023/06/16 14:38:51;;;;;;;6.28;3.10;;;;;;;31.74;21.97;99183.97;7792987;32;38442;-79
2023/06/16 14:43:08;;;;;;;5.87;3.28;;;;;;;31.98;23.12;99183.94;7792700;32;38801;-81
2023/06/16 14:47:24;;;;;;;6.07;3.37;;;;;;;31.69;22.44;99190.12;7792985;32;39356;-79
2023/06/16 14:51:42;;;;;;;7.40;3.37;;;;;;;31.39;22.21;99185.37;7792699;32;40908;-79
2023/06/16 14:55:59;;;;;;;4.85;3.12;;;;;;;31.42;23.18;99184.53;7792987;32;38227;-79
2023/06/16 15:00:15;;;;;;;6.50;3.50;;;;;;;31.20;23.22;99186.91;7789511;32;37096;-79
2023/06/16 15:04:32;;;;;;;7.43;3.22;;;;;;;31.66;23.96;99178.91;7789469;32;39423;-78
2023/06/16 15:08:49;;;;;;;10.20;4.22;;;;;;;31.38;22.76;99181.78;7781466;32;40762;-80
2023/06/16 15:13:08;;;;;;;11.85;3.72;;;;;;;30.87;23.89;99166.88;7781440;32;38889;-80
2023/06/16 15:17:24;;;;;;;6.00;3.60;;;;;;;30.66;23.93;99168.78;7791413;32;37840;-81
2023/06/16 15:21:40;;;;;;;7.43;3.62;;;;;;;30.46;24.25;99167.84;7791237;32;39566;-83
2023/06/16 15:25:57;;;;;;;7.03;3.90;;;;;;;29.91;25.53;99164.91;7788958;32;39969;-81
2023/06/16 15:30:13;;;;;;;6.47;3.67;;;;;;;30.14;25.24;99172.66;7782563;32;37597;-79
2023/06/16 15:34:30;;;;;;;11.15;4.22;;;;;;;30.29;24.81;99167.66;7774321;32;37708;-81
2023/06/16 15:38:46;;;;;;;4.35;3.30;;;;;;;30.26;25.90;99174.12;7792161;32;40054;-79
2023/06/16 15:43:07;;;;;;;6.07;3.47;;;;;;;30.49;24.37;99167.03;7792429;32;40065;-80
2023/06/16 15:47:24;;;;;;;7.80;3.80;;;;;;;30.10;24.63;99182.38;7788077;32;39237;-80
2023/06/16 15:51:40;;;;;;;6.15;3.28;;;;;;;30.31;23.41;99176.47;7791866;32;38139;-81
2023/06/16 15:55:56;;;;;;;8.23;3.37;;;;;;;30.52;22.82;99183.06;7762758;32;39413;-81
2023/06/16 16:00:14;;;;;;;6.50;3.15;;;;;;;29.85;22.75;99189.03;7763277;32;40747;-81
2023/06/16 16:04:30;;;;;;;8.55;3.12;;;;;;;29.92;22.90;99193.78;7779336;32;38846;-80
2023/06/16 16:08:46;;;;;;;7.30;3.10;;;;;;;30.26;22.64;99195.81;7790020;32;37087;-80
2023/06/16 16:13:02;;;;;;;6.53;3.40;;;;;;;30.24;24.62;99187.81;7788613;32;39077;-82
2023/06/16 16:17:20;;;;;;;6.80;3.65;;;;;;;29.83;29.14;99216.75;7787737;32;40148;-81
2023/06/16 16:21:36;;;;;;;6.07;3.30;;;;;;;29.41;31.17;99227.16;7787616;32;38648;-80
2023/06/16 16:25:53;;;;;;;7.55;3.60;;;;;;;28.60;32.62;99236.44;7788164;32;37086;-80
2023/06/16 16:30:10;;;;;;;7.87;3.58;;;;;;;27.90;32.56;99227.81;7786761;32;39320;-80
2023/06/16 16:34:28;;;;;;;14.02;3.92;;;;;;;27.38;33.93;99235.84;7788313;32;39971;-80
2023/06/16 16:38:45;;;;;;;11.10;3.70;;;;;;;26.94;34.31;99234.94;7789154;32;38615;-79
2023/06/16 16:43:01;;;;;;;6.53;3.67;;;;;;;25.86;35.12;99238.03;7775874;32;37099;-79
2023/06/16 16:47:18;;;;;;;5.20;3.60;;;;;;;25.52;36.15;99240.16;7790147;32;39284;-79
2023/06/16 16:51:34;;;;;;;9.38;3.72;;;;;;;25.44;36.85;99249.66;7790178;32;39967;-78
2023/06/16 16:55:51;;;;;;;9.95;3.60;;;;;;;25.48;37.29;99242.12;7790883;32;38832;-75
2023/06/16 17:00:08;;;;;;;7.28;3.50;;;;;;;25.30;37.88;99241.97;7790620;32;36780;-74
2023/06/16 17:04:24;;;;;;;6.00;3.47;;;;;;;25.60;37.14;99239.03;7790869;32;39288;-72
2023/06/16 17:08:40;;;;;;;11.85;3.60;;;;;;;25.68;37.20;99237.09;7790634;32;40835;-76
2023/06/16 17:12:57;;;;;;;7.22;3.62;;;;;;;25.55;37.33;99252.56;7789299;32;37980;-81
2023/06/16 17:17:13;;;;;;;5.72;3.50;;;;;;;25.72;36.66;99249.09;7789908;32;37798;-81
2023/06/16 17:21:30;;;;;;;7.45;3.62;;;;;;;25.95;35.98;99246.09;7774903;32;39354;-81
2023/06/16 17:25:46;;;;;;;5.70;3.20;;;;;;;25.59;36.43;99253.37;7789766;32;39857;-83
2023/06/16 17:30:03;;;;;;;7.53;3.80;;;;;;;25.67;36.14;99246.66;7792452;32;38775;-80
2023/06/16 17:34:20;;;;;;;6.40;3.70;;;;;;;25.73;35.81;99250.69;7793031;32;36849;-80
2023/06/16 17:38:36;;;;;;;7.18;3.80;;;;;;;25.46;37.25;99256.47;7792849;32;38018;-79
2023/06/16 17:42:52;;;;;;;7.32;3.80;;;;;;;25.45;37.49;99259.63;7779417;32;40780;-79
2023/06/16 17:47:10;;;;;;;6.35;3.67;;;;;;;25.38;37.83;99260.38;7793547;32;38852;-80
2023/06/16 17:51:26;;;;;;;4.85;3.10;;;;;;;25.26;38.65;99266.25;7792380;32;37067;-79
2023/06/16 17:55:43;;;;;;;6.25;3.45;;;;;;;25.04;38.96;99266.00;7793461;32;39447;-78
2023/06/16 18:00:00;;;;;;;6.55;3.80;;;;;;;24.92;39.76;99264.28;7793744;32;41348;-80
2023/06/16 18:04:17;;;;;;;6.53;3.97;;;;;;;24.98;39.36;99259.16;7793300;32;37918;-79
2023/06/16 18:08:33;;;;;;;6.85;3.87;;;;;;;24.84;39.78;99261.81;7796937;32;37675;-80
2023/06/16 18:12:50;;;;;;;8.35;4.25;;;;;;;24.72;40.46;99263.66;7801920;32;40170;-79
2023/06/16 18:17:07;;;;;;;8.32;4.60;;;;;;;24.48;40.81;99264.91;7793279;32;39809;-80
2023/06/16 18:21:24;;;;;;;8.20;3.67;;;;;;;24.41;40.85;99270.41;7791009;32;37988;-79
2023/06/16 18:25:44;;;;;;;9.23;4.40;;;;;;;24.33;40.52;99263.13;7792526;32;36449;-80
2023/06/16 18:30:04;;;;;;;8.65;3.58;;;;;;;24.13;40.38;99271.63;7792464;32;39757;-81
2023/06/16 18:34:21;;;;;;;6.07;3.25;;;;;;;23.81;40.68;99268.34;7792459;32;40377;-80
2023/06/16 18:38:44;;;;;;;8.05;3.50;;;;;;;23.71;40.85;99277.28;7777685;32;37993;-80
2023/06/16 18:43:00;;;;;;;6.50;3.80;;;;;;;23.37;41.53;99269.59;7786445;32;37427;-80
2023/06/16 18:47:17;;;;;;;8.52;3.78;;;;;;;23.29;41.72;99283.75;7778623;32;40143;-83
2023/06/16 18:51:35;;;;;;;7.00;4.00;;;;;;;23.06;42.29;99284.53;7792928;32;41249;-81
2023/06/16 18:55:52;;;;;;;5.68;3.50;;;;;;;22.77;43.14;99292.28;7792736;32;37956;-81
2023/06/16 19:00:09;;;;;;;6.22;3.60;;;;;;;23.08;42.60;99289.69;7792818;32;37886;-78
2023/06/16 19:04:25;;;;;;;7.07;3.70;;;;;;;22.77;43.08;99297.81;7792673;32;40114;-78
2023/06/16 19:08:46;;;;;;;11.25;3.65;;;;;;;22.83;42.79;99301.91;7792808;32;39802;-81
2023/06/16 19:13:02;;;;;;;8.00;3.65;;;;;;;22.55;43.51;99313.25;7792532;32;38767;-78
2023/06/16 19:17:19;;;;;;;5.72;3.37;;;;;;;22.56;42.65;99314.03;7792004;32;37899;-78
2023/06/16 19:21:35;;;;;;;7.53;3.20;;;;;;;22.34;42.79;99313.59;7791051;32;39393;-79
2023/06/16 19:25:51;;;;;;;11.52;3.80;;;;;;;22.34;43.02;99323.91;7791790;32;40638;-79
2023/06/16 19:30:08;;;;;;;4.97;3.40;;;;;;;22.42;43.24;99331.19;7777574;32;38802;-79
2023/06/16 19:34:24;;;;;;;6.28;3.70;;;;;;;22.42;43.67;99336.75;7791896;32;37113;-79
2023/06/16 19:38:41;;;;;;;6.62;3.70;;;;;;;22.22;44.17;99339.47;7782878;32;40135;-79
2023/06/16 19:42:57;;;;;;;6.32;3.55;;;;;;;21.85;45.03;99331.47;7776430;32;39971;-78
2023/06/16 19:47:15;;;;;;;8.18;3.50;;;;;;;21.90;44.43;99330.37;7787332;32;36673;-79
2023/06/16 19:51:34;;;;;;;8.15;4.25;;;;;;;21.80;44.49;99336.44;7787824;32;37864;-78
2023/06/16 19:55:51;;;;;;;10.73;4.22;;;;;;;21.64;45.63;99351.13;7785960;32;39006;-79
2023/06/16 20:00:09;;;;;;;6.97;4.20;;;;;;;21.56;46.20;99357.66;7784082;32;39922;-81
2023/06/16 20:04:28;;;;;;;7.30;4.00;;;;;;;21.38;47.30;99343.28;7780906;32;38055;-80
2023/06/16 20:08:48;;;;;;;5.97;3.55;;;;;;;21.16;47.42;99355.75;7784544;32;37542;-81